sensor_id;sensor_type;location;lat;lon;timestamp;P1;durP1;ratioP1;P2;durP2;ratioP2
64029;SDS011;50277;52.064;4.492;2023-04-03T00:00:38;3.40;;;1.73;;
64029;SDS011;50277;52.064;4.492;2023-04-03T00:03:03;2.97;;;1.83;;
64029;SDS011;50277;52.064;4.492;2023-04-03T00:05:28;1.58;;;1.48;;
64029;SDS011;50277;52.064;4.492;2023-04-03T00:07:54;3.35;;;1.50;;
64029;SDS011;50277;52.064;4.492;2023-04-03T00:10:19;1.83;;;1.40;;
64029;SDS011;50277;52.064;4.492;2023-04-03T00:12:45;3.17;;;1.60;;
64029;SDS011;50277;52.064;4.492;2023-04-03T00:15:10;2.53;;;1.60;;
64029;SDS011;50277;52.064;4.492;2023-04-03T00:17:35;4.57;;;1.65;;
64029;SDS011;50277;52.064;4.492;2023-04-03T00:20:01;6.47;;;1.45;;
64029;SDS011;50277;52.064;4.492;2023-04-03T00:22:27;3.05;;;1.30;;
64029;SDS011;50277;52.064;4.492;2023-04-03T00:24:54;2.00;;;1.30;;
64029;SDS011;50277;52.064;4.492;2023-04-03T00:27:19;1.85;;;1.75;;
64029;SDS011;50277;52.064;4.492;2023-04-03T00:29:45;2.85;;;1.63;;
64029;SDS011;50277;52.064;4.492;2023-04-03T00:32:10;3.05;;;1.70;;
64029;SDS011;50277;52.064;4.492;2023-04-03T00:34:36;3.03;;;1.60;;
64029;SDS011;50277;52.064;4.492;2023-04-03T00:37:02;2.55;;;1.65;;
64029;SDS011;50277;52.064;4.492;2023-04-03T00:39:27;1.65;;;1.50;;
64029;SDS011;50277;52.064;4.492;2023-04-03T00:41:52;3.08;;;1.50;;
64029;SDS011;50277;52.064;4.492;2023-04-03T00:44:19;1.90;;;1.55;;
64029;SDS011;50277;52.064;4.492;2023-04-03T00:47:08;3.95;;;1.73;;
64029;SDS011;50277;52.064;4.492;2023-04-03T00:49:37;3.22;;;1.65;;
64029;SDS011;50277;52.064;4.492;2023-04-03T00:52:02;4.10;;;1.40;;
64029;SDS011;50277;52.064;4.492;2023-04-03T00:54:28;1.85;;;1.70;;
64029;SDS011;50277;52.064;4.492;2023-04-03T00:56:54;3.47;;;1.65;;
64029;SDS011;50277;52.064;4.492;2023-04-03T00:59:24;2.17;;;1.55;;
64029;SDS011;50277;52.064;4.492;2023-04-03T01:01:55;1.67;;;1.35;;
64029;SDS011;50277;52.064;4.492;2023-04-03T01:06:57;2.92;;;1.65;;
64029;SDS011;50277;52.064;4.492;2023-04-03T01:09:26;2.92;;;1.58;;
64029;SDS011;50277;52.064;4.492;2023-04-03T01:11:51;4.43;;;1.75;;
64029;SDS011;50277;52.064;4.492;2023-04-03T01:14:17;2.42;;;1.23;;
64029;SDS011;50277;52.064;4.492;2023-04-03T01:16:42;4.45;;;1.60;;
64029;SDS011;50277;52.064;4.492;2023-04-03T01:19:08;6.07;;;1.80;;
64029;SDS011;50277;52.064;4.492;2023-04-03T01:24:43;2.85;;;1.42;;
64029;SDS011;50277;52.064;4.492;2023-04-03T01:27:09;1.85;;;1.60;;
64029;SDS011;50277;52.064;4.492;2023-04-03T01:29:35;2.08;;;1.73;;
64029;SDS011;50277;52.064;4.492;2023-04-03T01:32:01;5.45;;;1.40;;
64029;SDS011;50277;52.064;4.492;2023-04-03T01:34:28;3.13;;;1.60;;
64029;SDS011;50277;52.064;4.492;2023-04-03T01:36:53;2.67;;;1.58;;
64029;SDS011;50277;52.064;4.492;2023-04-03T01:39:19;1.58;;;1.42;;
64029;SDS011;50277;52.064;4.492;2023-04-03T01:41:45;2.58;;;1.63;;
64029;SDS011;50277;52.064;4.492;2023-04-03T01:44:11;5.38;;;1.55;;
64029;SDS011;50277;52.064;4.492;2023-04-03T01:46:36;3.35;;;1.63;;
64029;SDS011;50277;52.064;4.492;2023-04-03T01:49:02;5.57;;;1.70;;
64029;SDS011;50277;52.064;4.492;2023-04-03T01:51:28;1.70;;;1.60;;
64029;SDS011;50277;52.064;4.492;2023-04-03T01:53:53;1.98;;;1.70;;
64029;SDS011;50277;52.064;4.492;2023-04-03T01:56:19;4.60;;;1.55;;
64029;SDS011;50277;52.064;4.492;2023-04-03T01:58:45;2.63;;;1.60;;
64029;SDS011;50277;52.064;4.492;2023-04-03T02:01:10;2.78;;;1.70;;
64029;SDS011;50277;52.064;4.492;2023-04-03T02:03:35;2.20;;;1.70;;
64029;SDS011;50277;52.064;4.492;2023-04-03T02:06:01;4.82;;;1.52;;
64029;SDS011;50277;52.064;4.492;2023-04-03T02:08:27;1.95;;;1.63;;
64029;SDS011;50277;52.064;4.492;2023-04-03T02:10:52;2.90;;;1.77;;
64029;SDS011;50277;52.064;4.492;2023-04-03T02:13:17;3.97;;;2.03;;
64029;SDS011;50277;52.064;4.492;2023-04-03T02:15:43;3.58;;;1.83;;
64029;SDS011;50277;52.064;4.492;2023-04-03T02:18:08;4.07;;;2.03;;
64029;SDS011;50277;52.064;4.492;2023-04-03T02:20:34;6.47;;;1.95;;
64029;SDS011;50277;52.064;4.492;2023-04-03T02:23:00;2.40;;;1.70;;
64029;SDS011;50277;52.064;4.492;2023-04-03T02:25:25;6.15;;;1.80;;
64029;SDS011;50277;52.064;4.492;2023-04-03T02:27:51;3.38;;;2.30;;
64029;SDS011;50277;52.064;4.492;2023-04-03T02:30:16;1.75;;;1.55;;
64029;SDS011;50277;52.064;4.492;2023-04-03T02:32:42;3.75;;;2.03;;
64029;SDS011;50277;52.064;4.492;2023-04-03T02:35:08;3.67;;;1.77;;
64029;SDS011;50277;52.064;4.492;2023-04-03T02:37:33;2.83;;;1.80;;
64029;SDS011;50277;52.064;4.492;2023-04-03T02:39:59;3.80;;;1.90;;
64029;SDS011;50277;52.064;4.492;2023-04-03T02:42:24;2.63;;;1.80;;
64029;SDS011;50277;52.064;4.492;2023-04-03T02:44:50;2.28;;;1.70;;
64029;SDS011;50277;52.064;4.492;2023-04-03T02:47:15;1.58;;;1.48;;
64029;SDS011;50277;52.064;4.492;2023-04-03T02:49:41;2.30;;;1.75;;
64029;SDS011;50277;52.064;4.492;2023-04-03T02:52:08;2.10;;;2.00;;
64029;SDS011;50277;52.064;4.492;2023-04-03T02:54:33;3.30;;;2.10;;
64029;SDS011;50277;52.064;4.492;2023-04-03T02:56:59;3.30;;;1.70;;
64029;SDS011;50277;52.064;4.492;2023-04-03T02:59:24;4.50;;;2.00;;
64029;SDS011;50277;52.064;4.492;2023-04-03T03:01:50;3.08;;;1.88;;
64029;SDS011;50277;52.064;4.492;2023-04-03T03:04:15;1.98;;;1.70;;
64029;SDS011;50277;52.064;4.492;2023-04-03T03:06:40;4.00;;;1.63;;
64029;SDS011;50277;52.064;4.492;2023-04-03T03:09:06;3.92;;;1.45;;
64029;SDS011;50277;52.064;4.492;2023-04-03T03:11:32;2.08;;;1.77;;
64029;SDS011;50277;52.064;4.492;2023-04-03T03:13:57;8.20;;;1.95;;
64029;SDS011;50277;52.064;4.492;2023-04-03T03:16:22;2.33;;;1.80;;
64029;SDS011;50277;52.064;4.492;2023-04-03T03:18:48;2.08;;;1.70;;
64029;SDS011;50277;52.064;4.492;2023-04-03T03:21:13;5.82;;;2.20;;
64029;SDS011;50277;52.064;4.492;2023-04-03T03:23:38;3.78;;;1.95;;
64029;SDS011;50277;52.064;4.492;2023-04-03T03:26:05;2.47;;;1.63;;
64029;SDS011;50277;52.064;4.492;2023-04-03T03:28:32;2.15;;;1.75;;
64029;SDS011;50277;52.064;4.492;2023-04-03T03:30:58;2.72;;;1.80;;
64029;SDS011;50277;52.064;4.492;2023-04-03T03:33:24;3.55;;;1.75;;
64029;SDS011;50277;52.064;4.492;2023-04-03T03:35:51;3.45;;;2.05;;
64029;SDS011;50277;52.064;4.492;2023-04-03T03:38:17;4.35;;;1.95;;
64029;SDS011;50277;52.064;4.492;2023-04-03T03:40:42;2.88;;;2.40;;
64029;SDS011;50277;52.064;4.492;2023-04-03T03:43:08;3.13;;;2.13;;
64029;SDS011;50277;52.064;4.492;2023-04-03T03:45:33;3.25;;;1.90;;
64029;SDS011;50277;52.064;4.492;2023-04-03T03:47:59;2.40;;;1.63;;
64029;SDS011;50277;52.064;4.492;2023-04-03T03:50:24;4.30;;;1.90;;
64029;SDS011;50277;52.064;4.492;2023-04-03T03:52:49;7.07;;;2.10;;
64029;SDS011;50277;52.064;4.492;2023-04-03T03:55:15;4.18;;;1.95;;
64029;SDS011;50277;52.064;4.492;2023-04-03T03:57:40;1.98;;;1.55;;
64029;SDS011;50277;52.064;4.492;2023-04-03T04:00:06;3.47;;;2.25;;
64029;SDS011;50277;52.064;4.492;2023-04-03T04:02:32;5.50;;;2.20;;
64029;SDS011;50277;52.064;4.492;2023-04-03T04:04:57;4.63;;;2.50;;
64029;SDS011;50277;52.064;4.492;2023-04-03T04:07:23;5.13;;;2.35;;
64029;SDS011;50277;52.064;4.492;2023-04-03T04:09:48;3.63;;;2.10;;
64029;SDS011;50277;52.064;4.492;2023-04-03T04:12:13;6.05;;;2.67;;
64029;SDS011;50277;52.064;4.492;2023-04-03T04:14:39;3.63;;;2.17;;
64029;SDS011;50277;52.064;4.492;2023-04-03T04:17:04;2.50;;;1.55;;
64029;SDS011;50277;52.064;4.492;2023-04-03T04:19:30;2.70;;;2.10;;
64029;SDS011;50277;52.064;4.492;2023-04-03T04:21:55;4.30;;;1.95;;
64029;SDS011;50277;52.064;4.492;2023-04-03T04:24:21;2.95;;;2.10;;
64029;SDS011;50277;52.064;4.492;2023-04-03T04:26:48;5.75;;;2.10;;
64029;SDS011;50277;52.064;4.492;2023-04-03T04:29:13;3.45;;;1.92;;
64029;SDS011;50277;52.064;4.492;2023-04-03T04:31:39;3.70;;;2.17;;
64029;SDS011;50277;52.064;4.492;2023-04-03T04:34:04;3.08;;;2.28;;
64029;SDS011;50277;52.064;4.492;2023-04-03T04:36:30;6.07;;;2.17;;
64029;SDS011;50277;52.064;4.492;2023-04-03T04:38:55;4.20;;;2.10;;
64029;SDS011;50277;52.064;4.492;2023-04-03T04:41:21;4.35;;;2.10;;
64029;SDS011;50277;52.064;4.492;2023-04-03T04:43:47;7.28;;;2.65;;
64029;SDS011;50277;52.064;4.492;2023-04-03T04:46:16;6.22;;;2.05;;
64029;SDS011;50277;52.064;4.492;2023-04-03T04:48:42;3.50;;;2.53;;
64029;SDS011;50277;52.064;4.492;2023-04-03T04:51:07;3.45;;;2.50;;
64029;SDS011;50277;52.064;4.492;2023-04-03T04:53:32;4.55;;;1.90;;
64029;SDS011;50277;52.064;4.492;2023-04-03T04:55:58;5.45;;;2.28;;
64029;SDS011;50277;52.064;4.492;2023-04-03T04:58:23;3.17;;;2.20;;
64029;SDS011;50277;52.064;4.492;2023-04-03T05:00:49;3.42;;;2.10;;
64029;SDS011;50277;52.064;4.492;2023-04-03T05:03:15;4.45;;;2.15;;
64029;SDS011;50277;52.064;4.492;2023-04-03T05:05:40;5.43;;;1.98;;
64029;SDS011;50277;52.064;4.492;2023-04-03T05:08:06;3.33;;;2.05;;
64029;SDS011;50277;52.064;4.492;2023-04-03T05:10:33;4.82;;;2.30;;
64029;SDS011;50277;52.064;4.492;2023-04-03T05:12:58;6.93;;;2.40;;
64029;SDS011;50277;52.064;4.492;2023-04-03T05:15:23;4.25;;;2.13;;
64029;SDS011;50277;52.064;4.492;2023-04-03T05:17:49;2.20;;;2.00;;
64029;SDS011;50277;52.064;4.492;2023-04-03T05:20:15;6.35;;;2.10;;
64029;SDS011;50277;52.064;4.492;2023-04-03T05:22:40;5.18;;;2.53;;
64029;SDS011;50277;52.064;4.492;2023-04-03T05:25:06;2.85;;;2.22;;
64029;SDS011;50277;52.064;4.492;2023-04-03T05:27:31;5.80;;;2.30;;
64029;SDS011;50277;52.064;4.492;2023-04-03T05:29:57;3.42;;;2.45;;
64029;SDS011;50277;52.064;4.492;2023-04-03T05:32:23;3.38;;;1.98;;
64029;SDS011;50277;52.064;4.492;2023-04-03T05:34:48;3.67;;;2.25;;
64029;SDS011;50277;52.064;4.492;2023-04-03T05:37:14;6.53;;;2.17;;
64029;SDS011;50277;52.064;4.492;2023-04-03T05:39:39;3.55;;;2.10;;
64029;SDS011;50277;52.064;4.492;2023-04-03T05:42:06;4.07;;;2.20;;
64029;SDS011;50277;52.064;4.492;2023-04-03T05:44:32;10.32;;;2.17;;
64029;SDS011;50277;52.064;4.492;2023-04-03T05:46:57;3.65;;;2.30;;
64029;SDS011;50277;52.064;4.492;2023-04-03T05:49:22;3.03;;;2.30;;
64029;SDS011;50277;52.064;4.492;2023-04-03T05:51:48;3.75;;;2.60;;
64029;SDS011;50277;52.064;4.492;2023-04-03T05:54:15;9.18;;;2.33;;
64029;SDS011;50277;52.064;4.492;2023-04-03T05:56:47;6.15;;;2.58;;
64029;SDS011;50277;52.064;4.492;2023-04-03T05:59:13;7.35;;;2.50;;
64029;SDS011;50277;52.064;4.492;2023-04-03T06:01:38;6.43;;;2.25;;
64029;SDS011;50277;52.064;4.492;2023-04-03T06:04:04;3.83;;;2.20;;
64029;SDS011;50277;52.064;4.492;2023-04-03T06:07:02;2.97;;;2.10;;
64029;SDS011;50277;52.064;4.492;2023-04-03T06:09:23;5.85;;;2.38;;
64029;SDS011;50277;52.064;4.492;2023-04-03T06:11:50;4.90;;;2.65;;
64029;SDS011;50277;52.064;4.492;2023-04-03T06:14:16;3.70;;;2.38;;
64029;SDS011;50277;52.064;4.492;2023-04-03T06:16:41;3.58;;;2.33;;
64029;SDS011;50277;52.064;4.492;2023-04-03T06:19:07;3.53;;;1.95;;
64029;SDS011;50277;52.064;4.492;2023-04-03T06:21:33;3.03;;;2.25;;
64029;SDS011;50277;52.064;4.492;2023-04-03T06:23:59;4.32;;;2.40;;
64029;SDS011;50277;52.064;4.492;2023-04-03T06:26:24;7.30;;;2.47;;
64029;SDS011;50277;52.064;4.492;2023-04-03T06:28:49;6.53;;;2.80;;
64029;SDS011;50277;52.064;4.492;2023-04-03T06:31:15;6.18;;;2.38;;
64029;SDS011;50277;52.064;4.492;2023-04-03T06:33:41;4.82;;;2.60;;
64029;SDS011;50277;52.064;4.492;2023-04-03T06:36:06;5.57;;;2.03;;
64029;SDS011;50277;52.064;4.492;2023-04-03T06:38:32;2.22;;;1.85;;
64029;SDS011;50277;52.064;4.492;2023-04-03T06:40:58;2.45;;;1.90;;
64029;SDS011;50277;52.064;4.492;2023-04-03T06:43:24;4.93;;;2.15;;
64029;SDS011;50277;52.064;4.492;2023-04-03T06:45:49;3.30;;;2.20;;
64029;SDS011;50277;52.064;4.492;2023-04-03T06:48:15;5.38;;;2.00;;
64029;SDS011;50277;52.064;4.492;2023-04-03T06:50:41;5.75;;;1.98;;
64029;SDS011;50277;52.064;4.492;2023-04-03T06:53:06;8.15;;;1.85;;
64029;SDS011;50277;52.064;4.492;2023-04-03T06:55:32;7.78;;;2.47;;
64029;SDS011;50277;52.064;4.492;2023-04-03T06:57:57;7.85;;;2.10;;
64029;SDS011;50277;52.064;4.492;2023-04-03T07:00:22;3.75;;;2.50;;
64029;SDS011;50277;52.064;4.492;2023-04-03T07:02:48;4.75;;;2.70;;
64029;SDS011;50277;52.064;4.492;2023-04-03T07:05:13;6.30;;;2.35;;
64029;SDS011;50277;52.064;4.492;2023-04-03T07:07:38;4.60;;;2.20;;
64029;SDS011;50277;52.064;4.492;2023-04-03T07:10:05;5.97;;;2.00;;
64029;SDS011;50277;52.064;4.492;2023-04-03T07:12:31;3.35;;;2.35;;
64029;SDS011;50277;52.064;4.492;2023-04-03T07:57:01;4.57;;;2.25;;
64029;SDS011;50277;52.064;4.492;2023-04-03T07:59:27;5.10;;;2.22;;
64029;SDS011;50277;52.064;4.492;2023-04-03T08:01:52;5.88;;;2.13;;
64029;SDS011;50277;52.064;4.492;2023-04-03T08:04:18;4.78;;;2.10;;
64029;SDS011;50277;52.064;4.492;2023-04-03T08:06:43;5.57;;;2.17;;
64029;SDS011;50277;52.064;4.492;2023-04-03T08:09:08;4.25;;;1.92;;
64029;SDS011;50277;52.064;4.492;2023-04-03T08:11:34;3.53;;;1.88;;
64029;SDS011;50277;52.064;4.492;2023-04-03T08:14:01;5.68;;;2.05;;
64029;SDS011;50277;52.064;4.492;2023-04-03T08:16:27;5.40;;;2.10;;
64029;SDS011;50277;52.064;4.492;2023-04-03T08:18:53;4.97;;;2.00;;
64029;SDS011;50277;52.064;4.492;2023-04-03T08:21:19;3.75;;;1.85;;
64029;SDS011;50277;52.064;4.492;2023-04-03T08:23:47;5.88;;;2.00;;
64029;SDS011;50277;52.064;4.492;2023-04-03T08:26:15;3.88;;;1.95;;
64029;SDS011;50277;52.064;4.492;2023-04-03T08:28:41;2.97;;;1.92;;
64029;SDS011;50277;52.064;4.492;2023-04-03T08:31:09;5.05;;;2.38;;
64029;SDS011;50277;52.064;4.492;2023-04-03T08:33:36;5.93;;;2.30;;
64029;SDS011;50277;52.064;4.492;2023-04-03T08:36:06;3.05;;;1.90;;
64029;SDS011;50277;52.064;4.492;2023-04-03T08:38:33;4.22;;;2.20;;
64029;SDS011;50277;52.064;4.492;2023-04-03T08:41:44;4.03;;;2.30;;
64029;SDS011;50277;52.064;4.492;2023-04-03T08:47:00;5.82;;;2.50;;
64029;SDS011;50277;52.064;4.492;2023-04-03T08:49:30;3.72;;;2.38;;
64029;SDS011;50277;52.064;4.492;2023-04-03T08:51:58;3.13;;;2.10;;
64029;SDS011;50277;52.064;4.492;2023-04-03T08:54:29;5.83;;;2.20;;
64029;SDS011;50277;52.064;4.492;2023-04-03T08:56:57;8.52;;;2.30;;
64029;SDS011;50277;52.064;4.492;2023-04-03T08:59:26;3.10;;;2.10;;
64029;SDS011;50277;52.064;4.492;2023-04-03T09:01:53;4.28;;;2.60;;
64029;SDS011;50277;52.064;4.492;2023-04-03T09:04:19;4.70;;;2.63;;
64029;SDS011;50277;52.064;4.492;2023-04-03T09:06:49;3.28;;;1.98;;
64029;SDS011;50277;52.064;4.492;2023-04-03T09:12:06;4.82;;;2.20;;
64029;SDS011;50277;52.064;4.492;2023-04-03T09:19:54;5.07;;;2.15;;
64029;SDS011;50277;52.064;4.492;2023-04-03T09:22:24;2.13;;;1.80;;
64029;SDS011;50277;52.064;4.492;2023-04-03T09:24:53;2.40;;;1.52;;
64029;SDS011;50277;52.064;4.492;2023-04-03T09:27:22;1.80;;;1.23;;
64029;SDS011;50277;52.064;4.492;2023-04-03T09:29:48;1.63;;;1.52;;
64029;SDS011;50277;52.064;4.492;2023-04-03T09:32:19;4.82;;;1.80;;
64029;SDS011;50277;52.064;4.492;2023-04-03T09:34:48;1.63;;;1.25;;
64029;SDS011;50277;52.064;4.492;2023-04-03T09:37:32;1.50;;;0.93;;
64029;SDS011;50277;52.064;4.492;2023-04-03T09:40:05;1.65;;;1.30;;
64029;SDS011;50277;52.064;4.492;2023-04-03T09:42:38;2.03;;;1.15;;
64029;SDS011;50277;52.064;4.492;2023-04-03T09:45:20;2.15;;;1.40;;
64029;SDS011;50277;52.064;4.492;2023-04-03T09:47:50;1.83;;;1.10;;
64029;SDS011;50277;52.064;4.492;2023-04-03T09:50:30;1.27;;;1.20;;
64029;SDS011;50277;52.064;4.492;2023-04-03T09:52:55;1.70;;;1.38;;
64029;SDS011;50277;52.064;4.492;2023-04-03T09:55:25;2.17;;;1.33;;
64029;SDS011;50277;52.064;4.492;2023-04-03T09:57:56;0.90;;;0.90;;
64029;SDS011;50277;52.064;4.492;2023-04-03T10:00:27;2.05;;;1.10;;
64029;SDS011;50277;52.064;4.492;2023-04-03T10:02:58;2.20;;;1.08;;
64029;SDS011;50277;52.064;4.492;2023-04-03T10:08:34;1.05;;;0.95;;
64029;SDS011;50277;52.064;4.492;2023-04-03T10:11:06;0.93;;;0.82;;
64029;SDS011;50277;52.064;4.492;2023-04-03T10:16:22;1.65;;;1.10;;
64029;SDS011;50277;52.064;4.492;2023-04-03T10:26:54;1.85;;;1.10;;
64029;SDS011;50277;52.064;4.492;2023-04-03T10:35:00;1.20;;;1.10;;
64029;SDS011;50277;52.064;4.492;2023-04-03T10:37:47;2.78;;;1.23;;
64029;SDS011;50277;52.064;4.492;2023-04-03T10:43:09;2.20;;;1.08;;
64029;SDS011;50277;52.064;4.492;2023-04-03T10:45:46;1.13;;;1.00;;
64029;SDS011;50277;52.064;4.492;2023-04-03T10:51:10;0.80;;;0.80;;
64029;SDS011;50277;52.064;4.492;2023-04-03T10:56:35;2.33;;;1.13;;
64029;SDS011;50277;52.064;4.492;2023-04-03T10:59:29;1.95;;;1.10;;
64029;SDS011;50277;52.064;4.492;2023-04-03T11:04:48;2.45;;;1.20;;
64029;SDS011;50277;52.064;4.492;2023-04-03T11:07:21;1.80;;;1.10;;
64029;SDS011;50277;52.064;4.492;2023-04-03T11:09:48;1.83;;;1.20;;
64029;SDS011;50277;52.064;4.492;2023-04-03T11:14:57;3.45;;;1.10;;
64029;SDS011;50277;52.064;4.492;2023-04-03T11:17:26;1.63;;;1.02;;
64029;SDS011;50277;52.064;4.492;2023-04-03T11:22:42;1.20;;;0.98;;
64029;SDS011;50277;52.064;4.492;2023-04-03T11:25:14;1.00;;;1.00;;
64029;SDS011;50277;52.064;4.492;2023-04-03T11:27:49;1.10;;;1.10;;
64029;SDS011;50277;52.064;4.492;2023-04-03T11:30:25;1.67;;;1.10;;
64029;SDS011;50277;52.064;4.492;2023-04-03T11:35:48;1.25;;;0.90;;
64029;SDS011;50277;52.064;4.492;2023-04-03T11:38:18;4.07;;;0.90;;
64029;SDS011;50277;52.064;4.492;2023-04-03T11:40:47;1.77;;;1.00;;
64029;SDS011;50277;52.064;4.492;2023-04-03T11:43:32;1.92;;;0.80;;
64029;SDS011;50277;52.064;4.492;2023-04-03T11:51:02;1.88;;;0.93;;
64029;SDS011;50277;52.064;4.492;2023-04-03T11:53:52;4.07;;;0.85;;
64029;SDS011;50277;52.064;4.492;2023-04-03T12:26:44;1.33;;;0.70;;
64029;SDS011;50277;52.064;4.492;2023-04-03T12:34:37;0.52;;;0.52;;
64029;SDS011;50277;52.064;4.492;2023-04-03T12:37:08;2.03;;;0.70;;
64029;SDS011;50277;52.064;4.492;2023-04-03T12:42:42;0.80;;;0.80;;
64029;SDS011;50277;52.064;4.492;2023-04-03T12:47:46;1.75;;;0.98;;
64029;SDS011;50277;52.064;4.492;2023-04-03T12:50:21;0.95;;;0.70;;
64029;SDS011;50277;52.064;4.492;2023-04-03T12:53:05;0.70;;;0.70;;
64029;SDS011;50277;52.064;4.492;2023-04-03T12:55:32;0.75;;;0.75;;
64029;SDS011;50277;52.064;4.492;2023-04-03T12:58:12;1.30;;;0.98;;
64029;SDS011;50277;52.064;4.492;2023-04-03T13:01:00;1.95;;;1.00;;
64029;SDS011;50277;52.064;4.492;2023-04-03T13:03:33;4.95;;;0.77;;
64029;SDS011;50277;52.064;4.492;2023-04-03T13:06:02;1.95;;;1.00;;
64029;SDS011;50277;52.064;4.492;2023-04-03T13:08:28;2.83;;;1.10;;
64029;SDS011;50277;52.064;4.492;2023-04-03T13:11:03;0.85;;;0.70;;
64029;SDS011;50277;52.064;4.492;2023-04-03T13:13:31;3.10;;;1.27;;
64029;SDS011;50277;52.064;4.492;2023-04-03T13:15:56;1.90;;;1.15;;
64029;SDS011;50277;52.064;4.492;2023-04-03T13:18:23;1.15;;;0.93;;
64029;SDS011;50277;52.064;4.492;2023-04-03T13:20:50;1.15;;;0.90;;
64029;SDS011;50277;52.064;4.492;2023-04-03T13:23:16;1.05;;;1.00;;
64029;SDS011;50277;52.064;4.492;2023-04-03T13:25:43;1.35;;;1.25;;
64029;SDS011;50277;52.064;4.492;2023-04-03T13:28:11;3.80;;;1.23;;
64029;SDS011;50277;52.064;4.492;2023-04-03T13:30:39;4.18;;;1.05;;
64029;SDS011;50277;52.064;4.492;2023-04-03T13:33:17;2.65;;;0.88;;
64029;SDS011;50277;52.064;4.492;2023-04-03T13:35:46;1.77;;;1.05;;
64029;SDS011;50277;52.064;4.492;2023-04-03T13:40:50;1.83;;;1.25;;
64029;SDS011;50277;52.064;4.492;2023-04-03T13:43:25;1.15;;;0.98;;
64029;SDS011;50277;52.064;4.492;2023-04-03T13:45:56;1.85;;;1.30;;
64029;SDS011;50277;52.064;4.492;2023-04-03T13:48:46;3.83;;;1.25;;
64029;SDS011;50277;52.064;4.492;2023-04-03T13:53:59;2.63;;;1.13;;
64029;SDS011;50277;52.064;4.492;2023-04-03T13:56:32;3.42;;;1.10;;
64029;SDS011;50277;52.064;4.492;2023-04-03T14:05:12;1.20;;;1.10;;
64029;SDS011;50277;52.064;4.492;2023-04-03T14:07:23;2.03;;;1.00;;
64029;SDS011;50277;52.064;4.492;2023-04-03T14:09:49;5.35;;;1.40;;
64029;SDS011;50277;52.064;4.492;2023-04-03T14:12:16;1.45;;;1.20;;
64029;SDS011;50277;52.064;4.492;2023-04-03T14:14:43;2.25;;;1.05;;
64029;SDS011;50277;52.064;4.492;2023-04-03T14:17:13;2.13;;;1.10;;
64029;SDS011;50277;52.064;4.492;2023-04-03T14:19:40;1.52;;;1.40;;
64029;SDS011;50277;52.064;4.492;2023-04-03T14:22:16;2.58;;;1.17;;
64029;SDS011;50277;52.064;4.492;2023-04-03T14:24:43;1.67;;;1.08;;
64029;SDS011;50277;52.064;4.492;2023-04-03T14:27:14;2.83;;;1.20;;
64029;SDS011;50277;52.064;4.492;2023-04-03T14:29:46;1.77;;;1.27;;
64029;SDS011;50277;52.064;4.492;2023-04-03T14:32:13;1.40;;;1.05;;
64029;SDS011;50277;52.064;4.492;2023-04-03T14:34:39;4.55;;;1.80;;
64029;SDS011;50277;52.064;4.492;2023-04-03T14:37:09;2.53;;;1.08;;
64029;SDS011;50277;52.064;4.492;2023-04-03T14:39:35;2.00;;;1.10;;
64029;SDS011;50277;52.064;4.492;2023-04-03T14:42:00;2.60;;;1.60;;
64029;SDS011;50277;52.064;4.492;2023-04-03T14:44:26;2.38;;;1.10;;
64029;SDS011;50277;52.064;4.492;2023-04-03T14:46:51;2.33;;;1.30;;
64029;SDS011;50277;52.064;4.492;2023-04-03T14:49:21;1.42;;;1.05;;
64029;SDS011;50277;52.064;4.492;2023-04-03T14:51:49;3.17;;;1.10;;
64029;SDS011;50277;52.064;4.492;2023-04-03T14:54:17;1.25;;;0.98;;
64029;SDS011;50277;52.064;4.492;2023-04-03T14:56:44;2.95;;;1.35;;
64029;SDS011;50277;52.064;4.492;2023-04-03T14:59:11;2.85;;;1.40;;
64029;SDS011;50277;52.064;4.492;2023-04-03T15:01:37;6.15;;;1.10;;
64029;SDS011;50277;52.064;4.492;2023-04-03T15:04:10;2.67;;;1.30;;
64029;SDS011;50277;52.064;4.492;2023-04-03T15:06:39;1.45;;;1.17;;
64029;SDS011;50277;52.064;4.492;2023-04-03T15:09:05;5.15;;;1.10;;
64029;SDS011;50277;52.064;4.492;2023-04-03T15:11:37;2.60;;;1.17;;
64029;SDS011;50277;52.064;4.492;2023-04-03T15:14:03;3.03;;;1.73;;
64029;SDS011;50277;52.064;4.492;2023-04-03T15:16:28;2.08;;;1.25;;
64029;SDS011;50277;52.064;4.492;2023-04-03T15:18:53;3.08;;;1.20;;
64029;SDS011;50277;52.064;4.492;2023-04-03T15:21:19;1.83;;;1.38;;
64029;SDS011;50277;52.064;4.492;2023-04-03T15:23:44;2.70;;;1.25;;
64029;SDS011;50277;52.064;4.492;2023-04-03T15:26:10;2.80;;;1.40;;
64029;SDS011;50277;52.064;4.492;2023-04-03T15:28:37;3.22;;;2.20;;
64029;SDS011;50277;52.064;4.492;2023-04-03T15:31:04;2.22;;;1.30;;
64029;SDS011;50277;52.064;4.492;2023-04-03T15:33:30;5.03;;;2.85;;
64029;SDS011;50277;52.064;4.492;2023-04-03T15:35:56;5.35;;;2.83;;
64029;SDS011;50277;52.064;4.492;2023-04-03T15:38:22;3.45;;;1.40;;
64029;SDS011;50277;52.064;4.492;2023-04-03T15:40:48;3.28;;;1.25;;
64029;SDS011;50277;52.064;4.492;2023-04-03T15:43:13;4.05;;;1.45;;
64029;SDS011;50277;52.064;4.492;2023-04-03T15:45:39;2.00;;;1.40;;
64029;SDS011;50277;52.064;4.492;2023-04-03T15:48:05;1.52;;;1.40;;
64029;SDS011;50277;52.064;4.492;2023-04-03T15:50:31;2.80;;;1.20;;
64029;SDS011;50277;52.064;4.492;2023-04-03T15:52:56;3.17;;;1.08;;
64029;SDS011;50277;52.064;4.492;2023-04-03T15:55:26;1.77;;;1.40;;
64029;SDS011;50277;52.064;4.492;2023-04-03T15:57:52;3.45;;;1.88;;
64029;SDS011;50277;52.064;4.492;2023-04-03T16:00:18;1.35;;;1.13;;
64029;SDS011;50277;52.064;4.492;2023-04-03T16:02:45;1.55;;;1.10;;
64029;SDS011;50277;52.064;4.492;2023-04-03T16:05:11;3.35;;;1.20;;
64029;SDS011;50277;52.064;4.492;2023-04-03T16:07:38;3.35;;;1.45;;
64029;SDS011;50277;52.064;4.492;2023-04-03T16:10:05;1.95;;;1.42;;
64029;SDS011;50277;52.064;4.492;2023-04-03T16:12:31;2.67;;;1.20;;
64029;SDS011;50277;52.064;4.492;2023-04-03T16:14:57;2.10;;;1.38;;
64029;SDS011;50277;52.064;4.492;2023-04-03T16:17:22;1.90;;;1.35;;
64029;SDS011;50277;52.064;4.492;2023-04-03T16:19:47;3.80;;;1.50;;
64029;SDS011;50277;52.064;4.492;2023-04-03T16:22:13;3.08;;;1.30;;
64029;SDS011;50277;52.064;4.492;2023-04-03T16:24:38;2.75;;;1.52;;
64029;SDS011;50277;52.064;4.492;2023-04-03T16:27:04;1.83;;;1.40;;
64029;SDS011;50277;52.064;4.492;2023-04-03T16:29:29;1.55;;;1.02;;
64029;SDS011;50277;52.064;4.492;2023-04-03T16:31:54;2.53;;;1.13;;
64029;SDS011;50277;52.064;4.492;2023-04-03T16:34:21;2.08;;;1.25;;
64029;SDS011;50277;52.064;4.492;2023-04-03T16:36:46;2.25;;;1.50;;
64029;SDS011;50277;52.064;4.492;2023-04-03T16:39:12;1.55;;;1.40;;
64029;SDS011;50277;52.064;4.492;2023-04-03T16:41:37;5.15;;;1.60;;
64029;SDS011;50277;52.064;4.492;2023-04-03T16:44:02;3.08;;;1.52;;
64029;SDS011;50277;52.064;4.492;2023-04-03T16:46:28;2.50;;;1.35;;
64029;SDS011;50277;52.064;4.492;2023-04-03T16:48:53;3.35;;;1.42;;
64029;SDS011;50277;52.064;4.492;2023-04-03T16:51:18;3.28;;;1.65;;
64029;SDS011;50277;52.064;4.492;2023-04-03T16:53:44;2.42;;;1.33;;
64029;SDS011;50277;52.064;4.492;2023-04-03T16:56:09;5.05;;;1.42;;
64029;SDS011;50277;52.064;4.492;2023-04-03T16:58:35;4.55;;;1.42;;
64029;SDS011;50277;52.064;4.492;2023-04-03T17:01:13;2.80;;;1.40;;
64029;SDS011;50277;52.064;4.492;2023-04-03T17:03:40;2.92;;;1.35;;
64029;SDS011;50277;52.064;4.492;2023-04-03T17:06:05;2.15;;;1.30;;
64029;SDS011;50277;52.064;4.492;2023-04-03T17:08:30;3.60;;;2.33;;
64029;SDS011;50277;52.064;4.492;2023-04-03T17:10:56;3.72;;;1.58;;
64029;SDS011;50277;52.064;4.492;2023-04-03T17:13:21;5.18;;;1.58;;
64029;SDS011;50277;52.064;4.492;2023-04-03T17:15:46;2.42;;;2.15;;
64029;SDS011;50277;52.064;4.492;2023-04-03T17:18:12;5.43;;;1.48;;
64029;SDS011;50277;52.064;4.492;2023-04-03T17:20:37;1.88;;;1.50;;
64029;SDS011;50277;52.064;4.492;2023-04-03T17:23:03;3.05;;;1.60;;
64029;SDS011;50277;52.064;4.492;2023-04-03T17:25:29;2.38;;;1.40;;